Time;durP1;ratioP1;P1;durP2;ratioP2;P2;SDS_P1;SDS_P2;PMS_P1;PMS_P2;Temp;Humidity;BMP_temperature;BMP_pressure;BME280_temperature;BME280_humidity;BME280_pressure;Samples;Min_cycle;Max_cycle;Signal;HPM_P1;HPM_P2
2023/05/07 00:01:50;;;;;;;2.35;1.90;;;20.10;64.80;;;;;;5048438;28;20056;-77
2023/05/07 00:04:15;;;;;;;2.53;2.00;;;20.10;64.80;;;;;;5035738;28;20036;-79
2023/05/07 00:06:41;;;;;;;2.47;2.10;;;20.10;64.80;;;;;;5022530;28;20060;-79
2023/05/07 00:09:07;;;;;;;2.38;1.83;;;20.10;64.90;;;;;;5051065;28;20032;-78
2023/05/07 00:11:34;;;;;;;2.58;2.00;;;20.00;64.80;;;;;;5046451;28;20037;-78
2023/05/07 00:13:59;;;;;;;2.40;1.98;;;20.00;64.90;;;;;;5048459;28;20034;-78
2023/05/07 00:16:25;;;;;;;2.83;2.08;;;20.00;64.90;;;;;;5014837;28;20032;-77
2023/05/07 00:18:51;;;;;;;2.88;2.08;;;20.00;64.90;;;;;;5051939;28;20032;-77
2023/05/07 00:21:17;;;;;;;3.85;2.10;;;20.00;64.90;;;;;;5023103;28;20029;-79
2023/05/07 00:23:43;;;;;;;2.80;1.98;;;19.90;64.90;;;;;;5048544;28;20048;-78
2023/05/07 00:26:08;;;;;;;2.83;2.20;;;19.90;64.90;;;;;;5044246;28;20033;-78
2023/05/07 00:28:34;;;;;;;2.20;1.88;;;19.90;65.00;;;;;;5042483;28;20029;-78
2023/05/07 00:31:00;;;;;;;2.83;2.03;;;19.90;65.00;;;;;;5044859;28;20041;-78
2023/05/07 00:33:26;;;;;;;2.58;2.03;;;19.90;65.00;;;;;;5032064;28;20052;-78
2023/05/07 00:35:54;;;;;;;2.75;2.20;;;19.90;65.00;;;;;;5043772;28;20034;-77
2023/05/07 00:38:20;;;;;;;2.90;2.10;;;19.80;65.00;;;;;;5049607;28;20024;-78
2023/05/07 00:40:45;;;;;;;2.40;2.03;;;19.80;65.10;;;;;;5036297;28;20033;-78
2023/05/07 00:43:12;;;;;;;2.92;2.33;;;19.80;65.10;;;;;;5059526;28;20032;-78
2023/05/07 00:45:38;;;;;;;2.90;2.35;;;19.70;65.10;;;;;;5050780;28;20377;-79
2023/05/07 00:48:04;;;;;;;3.08;2.25;;;19.70;65.20;;;;;;5049993;28;20101;-78
2023/05/07 00:50:32;;;;;;;2.95;2.42;;;19.70;65.20;;;;;;5048012;28;20025;-78
2023/05/07 00:52:59;;;;;;;2.03;1.83;;;19.70;65.20;;;;;;5043232;28;20485;-78
2023/05/07 00:55:25;;;;;;;3.70;2.20;;;19.70;65.20;;;;;;5035518;28;20108;-78
2023/05/07 00:57:52;;;;;;;2.30;2.05;;;19.70;65.20;;;;;;5034629;28;20017;-78
2023/05/07 01:00:18;;;;;;;3.28;2.38;;;19.70;65.30;;;;;;5025542;28;20025;-78
2023/05/07 01:02:44;;;;;;;2.20;2.00;;;19.60;65.20;;;;;;5050113;28;20025;-78
2023/05/07 01:05:14;;;;;;;2.95;2.25;;;19.60;65.30;;;;;;5054735;28;20033;-78
2023/05/07 01:07:41;;;;;;;3.33;2.20;;;19.60;65.30;;;;;;5040521;28;20017;-78
2023/05/07 01:10:08;;;;;;;3.00;2.20;;;19.60;65.30;;;;;;5050996;28;20029;-78
2023/05/07 01:12:36;;;;;;;3.35;2.20;;;19.50;65.30;;;;;;5019220;28;20536;-78
2023/05/07 01:15:04;;;;;;;2.85;2.38;;;19.50;65.40;;;;;;5045627;28;20124;-78
2023/05/07 01:17:35;;;;;;;3.17;2.65;;;19.50;65.40;;;;;;5044317;28;20040;-78
2023/05/07 01:20:01;;;;;;;3.50;2.50;;;19.50;65.50;;;;;;5041781;28;20137;-79
2023/05/07 01:22:36;;;;;;;3.40;2.40;;;19.50;65.50;;;;;;5034393;28;20525;-78
2023/05/07 01:25:03;;;;;;;2.85;2.30;;;19.40;65.50;;;;;;5044676;28;20390;-78
2023/05/07 01:27:30;;;;;;;3.70;2.78;;;19.40;65.50;;;;;;5030084;28;20029;-78
2023/05/07 01:29:56;;;;;;;3.33;2.40;;;19.40;65.60;;;;;;5043569;28;20040;-79
2023/05/07 01:32:45;;;;;;;2.85;2.40;;;19.40;65.60;;;;;;5031687;28;20180;-78
2023/05/07 01:35:15;;;;;;;2.53;2.25;;;19.30;65.80;;;;;;5077940;28;20069;-78
2023/05/07 01:37:41;;;;;;;3.30;2.53;;;19.30;65.50;;;;;;5042259;28;20505;-78
2023/05/07 01:40:08;;;;;;;2.55;2.30;;;19.30;65.60;;;;;;5044543;28;20021;-79
2023/05/07 01:42:34;;;;;;;3.80;2.65;;;19.30;65.60;;;;;;5047214;28;20029;-78
2023/05/07 01:45:00;;;;;;;4.30;2.65;;;19.20;65.60;;;;;;5012138;28;20041;-78
2023/05/07 01:47:26;;;;;;;2.90;2.30;;;19.20;65.60;;;;;;5028884;28;20037;-78
2023/05/07 01:49:52;;;;;;;3.45;2.60;;;19.20;65.60;;;;;;5025913;28;20021;-78
2023/05/07 01:52:18;;;;;;;3.33;2.78;;;19.20;65.60;;;;;;5060936;28;20033;-78
2023/05/07 01:54:45;;;;;;;3.42;2.70;;;19.20;65.70;;;;;;5031899;28;20036;-78
2023/05/07 01:57:10;;;;;;;3.10;2.55;;;19.20;65.70;;;;;;5030454;28;20049;-78
2023/05/07 01:59:36;;;;;;;3.05;2.33;;;19.10;65.70;;;;;;5027093;28;20072;-81
2023/05/07 02:02:02;;;;;;;3.50;2.83;;;19.10;65.70;;;;;;4995871;28;20079;-79
2023/05/07 02:04:29;;;;;;;3.47;2.63;;;19.10;65.80;;;;;;5027001;28;20029;-79
2023/05/07 02:06:55;;;;;;;3.83;2.90;;;19.10;65.80;;;;;;5046241;28;21208;-78
2023/05/07 02:09:22;;;;;;;3.60;2.80;;;19.10;65.80;;;;;;5048449;28;20487;-78
2023/05/07 02:11:49;;;;;;;3.95;2.90;;;19.10;65.80;;;;;;5025792;28;20134;-78
2023/05/07 02:14:16;;;;;;;3.25;2.60;;;19.00;65.80;;;;;;5027632;28;20033;-79
2023/05/07 02:16:41;;;;;;;3.67;2.95;;;19.00;65.80;;;;;;5044963;28;20262;-78
2023/05/07 02:19:08;;;;;;;4.32;2.85;;;19.00;65.90;;;;;;5030579;28;20033;-78
2023/05/07 02:21:34;;;;;;;3.72;2.97;;;19.00;65.80;;;;;;5022908;28;20037;-77
2023/05/07 02:24:00;;;;;;;3.72;2.85;;;19.00;65.90;;;;;;5050566;28;20459;-78
2023/05/07 02:26:25;;;;;;;3.53;3.03;;;19.00;65.90;;;;;;5055670;28;20025;-78
2023/05/07 02:28:51;;;;;;;4.00;3.13;;;19.00;66.00;;;;;;5031282;28;20116;-78
2023/05/07 02:31:17;;;;;;;4.32;3.03;;;19.00;66.00;;;;;;5048994;28;20044;-78
2023/05/07 02:33:43;;;;;;;4.03;2.83;;;18.90;65.90;;;;;;5033626;28;20797;-78
2023/05/07 02:36:10;;;;;;;3.33;2.70;;;18.90;66.00;;;;;;5050709;28;20386;-77
2023/05/07 02:38:45;;;;;;;3.90;3.10;;;18.90;66.00;;;;;;5049234;28;20203;-77
2023/05/07 02:41:11;;;;;;;3.80;3.08;;;18.90;66.00;;;;;;5032949;28;20529;-77
2023/05/07 02:43:37;;;;;;;4.18;3.20;;;18.90;66.00;;;;;;5040402;28;20070;-78
2023/05/07 02:46:04;;;;;;;4.10;3.17;;;18.90;66.10;;;;;;5036375;28;20489;-78
2023/05/07 02:48:31;;;;;;;4.00;3.08;;;18.80;66.00;;;;;;5029189;28;20032;-78
2023/05/07 02:50:58;;;;;;;4.07;3.30;;;18.80;66.10;;;;;;5049817;28;20081;-78
2023/05/07 02:53:25;;;;;;;4.43;3.50;;;18.90;66.10;;;;;;5032874;28;20021;-78
2023/05/07 02:55:59;;;;;;;4.85;3.65;;;18.80;66.10;;;;;;5035721;28;20060;-77
2023/05/07 02:58:26;;;;;;;4.22;3.58;;;18.80;66.10;;;;;;5054238;28;20109;-78
2023/05/07 03:00:52;;;;;;;4.30;3.63;;;18.80;66.10;;;;;;5030317;28;20047;-76
2023/05/07 03:03:34;;;;;;;4.15;3.38;;;18.80;66.10;;;;;;5055169;28;20090;-78
2023/05/07 03:06:00;;;;;;;3.85;3.15;;;18.80;66.20;;;;;;5034003;28;20033;-78
2023/05/07 03:08:26;;;;;;;5.28;3.78;;;18.80;66.20;;;;;;5017922;28;20381;-76
2023/05/07 03:10:52;;;;;;;4.93;4.10;;;18.70;66.20;;;;;;5058215;28;20216;-77
2023/05/07 03:13:18;;;;;;;5.47;3.70;;;18.70;66.20;;;;;;5052356;28;20434;-78
2023/05/07 03:15:44;;;;;;;4.75;3.42;;;18.70;66.20;;;;;;5048150;28;20025;-78
2023/05/07 03:18:10;;;;;;;4.30;3.40;;;18.70;66.20;;;;;;5043812;28;20501;-78
2023/05/07 03:20:36;;;;;;;4.65;3.55;;;18.70;66.20;;;;;;5046585;28;20436;-77
2023/05/07 03:23:02;;;;;;;4.38;3.50;;;18.70;66.30;;;;;;5048589;28;20041;-78
2023/05/07 03:25:29;;;;;;;4.68;3.55;;;18.70;66.30;;;;;;5034682;28;20466;-77
2023/05/07 03:27:56;;;;;;;4.30;3.88;;;18.70;66.30;;;;;;5046262;28;20029;-78
2023/05/07 03:30:26;;;;;;;5.00;4.07;;;18.60;66.30;;;;;;5051590;28;20021;-79
2023/05/07 03:32:52;;;;;;;4.72;3.53;;;18.60;66.30;;;;;;5046381;28;20045;-77
2023/05/07 03:35:18;;;;;;;5.78;4.13;;;18.60;66.30;;;;;;5029635;28;20397;-77
2023/05/07 03:37:44;;;;;;;4.60;4.05;;;18.60;66.30;;;;;;5047581;28;20041;-78
2023/05/07 03:40:12;;;;;;;4.75;4.15;;;18.60;66.30;;;;;;5038826;28;20025;-78
2023/05/07 03:42:44;;;;;;;5.10;4.15;;;18.60;66.30;;;;;;5030805;28;20048;-78
2023/05/07 03:45:11;;;;;;;4.28;3.75;;;18.60;66.40;;;;;;5030396;28;20522;-77
2023/05/07 03:47:41;;;;;;;5.18;4.15;;;18.50;66.40;;;;;;5018762;28;20040;-78
2023/05/07 03:50:10;;;;;;;5.07;4.22;;;18.60;66.40;;;;;;5030951;28;20032;-78
2023/05/07 03:52:35;;;;;;;5.63;4.63;;;18.50;66.40;;;;;;5011685;28;20029;-77
2023/05/07 03:55:02;;;;;;;4.82;3.88;;;18.50;66.40;;;;;;5037354;28;20037;-77
2023/05/07 03:57:30;;;;;;;5.20;4.43;;;18.50;66.40;;;;;;5030000;28;20025;-78
2023/05/07 03:59:57;;;;;;;4.60;3.85;;;18.50;66.40;;;;;;5026242;28;20029;-78
2023/05/07 04:02:23;;;;;;;4.90;3.88;;;18.50;66.40;;;;;;5044438;28;20105;-77
2023/05/07 04:04:49;;;;;;;5.55;4.28;;;18.50;66.50;;;;;;5037544;28;20036;-79
2023/05/07 04:07:16;;;;;;;5.43;4.40;;;18.50;66.50;;;;;;5048546;28;20056;-77
2023/05/07 04:09:48;;;;;;;4.40;3.75;;;18.50;66.50;;;;;;5047674;28;20036;-77
2023/05/07 04:12:15;;;;;;;4.93;4.32;;;18.40;66.40;;;;;;5029932;28;20026;-76
2023/05/07 04:14:41;;;;;;;5.22;4.07;;;18.40;66.50;;;;;;5042866;28;20033;-78
2023/05/07 04:17:09;;;;;;;5.57;4.63;;;18.40;66.50;;;;;;5014208;28;20698;-77
2023/05/07 04:19:37;;;;;;;4.90;3.88;;;18.40;66.60;;;;;;5045130;28;20120;-77
2023/05/07 04:22:03;;;;;;;4.75;4.20;;;18.40;66.60;;;;;;5044567;28;20454;-77
2023/05/07 04:24:32;;;;;;;5.13;4.22;;;18.40;66.60;;;;;;5049786;28;20035;-78
2023/05/07 04:26:59;;;;;;;5.10;4.55;;;18.40;66.70;;;;;;5054041;28;20033;-76
2023/05/07 04:29:25;;;;;;;5.32;4.05;;;18.30;66.60;;;;;;5015736;28;20358;-78
2023/05/07 04:31:51;;;;;;;5.35;4.13;;;18.40;66.70;;;;;;5015752;28;20075;-77
2023/05/07 04:34:17;;;;;;;5.28;4.43;;;18.30;66.70;;;;;;5030397;28;20084;-77
2023/05/07 04:36:43;;;;;;;4.95;4.03;;;18.30;66.70;;;;;;5054658;28;20064;-77
2023/05/07 04:39:12;;;;;;;4.50;3.78;;;18.30;66.70;;;;;;5046535;28;20083;-78
2023/05/07 04:41:40;;;;;;;4.95;4.07;;;18.30;66.80;;;;;;5030674;28;20036;-77
2023/05/07 04:44:07;;;;;;;4.85;4.35;;;18.30;66.80;;;;;;5030410;28;20034;-79
2023/05/07 04:46:33;;;;;;;6.13;4.72;;;18.30;66.80;;;;;;5031925;28;20064;-78
2023/05/07 04:48:59;;;;;;;5.47;4.18;;;18.30;66.80;;;;;;5028533;28;20508;-77
2023/05/07 04:51:25;;;;;;;6.85;4.18;;;18.30;66.80;;;;;;5034562;28;20060;-77
2023/05/07 04:53:51;;;;;;;5.40;4.22;;;18.30;66.90;;;;;;5033264;28;20033;-77
2023/05/07 04:56:17;;;;;;;5.00;3.95;;;18.20;66.80;;;;;;5031373;28;20037;-77
2023/05/07 04:58:44;;;;;;;5.43;4.20;;;18.20;66.90;;;;;;5030144;28;20025;-76
2023/05/07 05:01:11;;;;;;;5.43;4.53;;;18.20;67.00;;;;;;5048786;28;20033;-77
2023/05/07 05:03:39;;;;;;;5.30;4.18;;;18.20;67.00;;;;;;5030607;28;20076;-78
2023/05/07 05:06:05;;;;;;;5.00;4.10;;;18.20;67.00;;;;;;5015490;28;20032;-78
2023/05/07 05:08:33;;;;;;;4.55;3.70;;;18.20;67.00;;;;;;5027958;28;20091;-76
2023/05/07 05:11:02;;;;;;;4.60;3.95;;;18.20;67.10;;;;;;5047782;28;20047;-78
2023/05/07 05:13:28;;;;;;;4.90;4.18;;;18.20;67.10;;;;;;5018689;28;20385;-77
2023/05/07 05:15:54;;;;;;;5.82;4.00;;;18.20;67.10;;;;;;5055020;28;20094;-77
2023/05/07 05:18:20;;;;;;;4.85;4.05;;;18.20;67.10;;;;;;5032479;28;20484;-77
2023/05/07 05:20:46;;;;;;;5.65;4.55;;;18.20;67.10;;;;;;5025630;28;20034;-77
2023/05/07 05:23:12;;;;;;;5.00;4.10;;;18.20;67.10;;;;;;5027442;28;20052;-77
2023/05/07 05:25:40;;;;;;;5.57;4.63;;;18.20;67.20;;;;;;5031160;28;20036;-77
2023/05/07 05:28:06;;;;;;;5.50;4.05;;;18.10;67.20;;;;;;5029700;28;20059;-78
2023/05/07 05:30:33;;;;;;;5.82;4.13;;;18.10;67.10;;;;;;5025853;28;20029;-77
2023/05/07 05:32:59;;;;;;;5.25;4.22;;;18.10;67.10;;;;;;5049336;28;20021;-77
2023/05/07 05:35:26;;;;;;;5.05;3.95;;;18.10;67.20;;;;;;5009707;28;20042;-76
2023/05/07 05:37:52;;;;;;;4.75;4.03;;;18.10;67.20;;;;;;5027336;28;20035;-78
2023/05/07 05:40:19;;;;;;;4.20;3.55;;;18.10;67.20;;;;;;5045019;28;20065;-77
2023/05/07 05:42:45;;;;;;;4.55;3.88;;;18.10;67.30;;;;;;5031813;28;20114;-77
2023/05/07 05:45:11;;;;;;;4.75;3.70;;;18.10;67.30;;;;;;5026295;28;21786;-77
2023/05/07 05:47:39;;;;;;;4.80;4.05;;;18.00;67.20;;;;;;5014855;28;20030;-77
2023/05/07 05:50:06;;;;;;;4.72;3.97;;;18.10;67.30;;;;;;5024561;28;20033;-76
2023/05/07 05:52:32;;;;;;;5.10;4.10;;;18.10;67.30;;;;;;5052040;28;20040;-77
2023/05/07 05:54:58;;;;;;;4.65;4.03;;;18.00;67.20;;;;;;5029320;28;20038;-77
2023/05/07 05:57:25;;;;;;;4.53;3.80;;;18.10;67.30;;;;;;5039012;28;20044;-78
2023/05/07 05:59:51;;;;;;;4.97;4.15;;;18.10;67.30;;;;;;5037184;28;20025;-77
2023/05/07 06:02:17;;;;;;;4.65;3.92;;;18.10;67.30;;;;;;5037026;28;20115;-77
2023/05/07 06:04:43;;;;;;;4.88;4.03;;;18.10;67.30;;;;;;5034439;28;20361;-77
2023/05/07 06:07:11;;;;;;;5.32;4.32;;;18.10;67.30;;;;;;5030877;28;20052;-79
2023/05/07 06:09:37;;;;;;;4.85;4.03;;;18.10;67.30;;;;;;5016402;28;20025;-77
2023/05/07 06:12:03;;;;;;;4.60;3.83;;;18.10;67.30;;;;;;5020502;28;20033;-78
2023/05/07 06:14:30;;;;;;;4.38;3.88;;;18.10;67.40;;;;;;5031284;28;20029;-78
2023/05/07 06:16:56;;;;;;;5.07;4.13;;;18.10;67.40;;;;;;5048828;28;20033;-77
2023/05/07 06:19:23;;;;;;;5.38;4.13;;;18.10;67.40;;;;;;5034757;28;20025;-77
2023/05/07 06:21:51;;;;;;;4.85;3.78;;;18.00;67.30;;;;;;5029267;28;20041;-77
2023/05/07 06:24:16;;;;;;;4.82;4.00;;;18.10;67.70;;;;;;5032557;28;20436;-78
2023/05/07 06:26:42;;;;;;;4.45;3.75;;;18.10;67.40;;;;;;5048853;28;20513;-77
2023/05/07 06:29:08;;;;;;;5.55;4.15;;;18.10;67.40;;;;;;5016019;28;20087;-77
2023/05/07 06:31:34;;;;;;;4.20;3.63;;;18.10;68.10;;;;;;5034825;28;20044;-77
2023/05/07 06:34:03;;;;;;;4.60;4.10;;;18.10;67.40;;;;;;5016272;28;20049;-77
2023/05/07 06:36:35;;;;;;;4.13;3.58;;;18.10;67.40;;;;;;5033421;28;20171;-78
2023/05/07 06:39:08;;;;;;;4.90;3.90;;;18.10;67.40;;;;;;5030264;28;20037;-76
2023/05/07 06:41:35;;;;;;;4.68;3.90;;;18.10;67.50;;;;;;5057275;28;20041;-78
2023/05/07 06:44:06;;;;;;;5.93;4.25;;;18.10;67.50;;;;;;5049270;28;20029;-77
2023/05/07 06:46:50;;;;;;;5.78;4.57;;;18.10;67.50;;;;;;5032559;28;20086;-77
2023/05/07 06:49:16;;;;;;;4.53;3.88;;;18.10;67.60;;;;;;5031342;28;20363;-77
2023/05/07 06:51:42;;;;;;;4.53;3.42;;;18.10;67.50;;;;;;5038732;28;20025;-77
2023/05/07 06:54:08;;;;;;;4.30;3.45;;;18.10;67.60;;;;;;5050336;28;20025;-77
2023/05/07 06:56:36;;;;;;;4.60;3.95;;;18.10;67.50;;;;;;5030081;28;20026;-78
2023/05/07 06:59:03;;;;;;;4.55;3.67;;;18.10;67.60;;;;;;5034224;28;20041;-77
2023/05/07 07:01:34;;;;;;;4.93;3.88;;;18.20;67.60;;;;;;5053152;28;20167;-78
2023/05/07 07:04:01;;;;;;;4.95;4.22;;;18.20;67.70;;;;;;5036440;28;20371;-77
2023/05/07 07:06:29;;;;;;;4.60;4.05;;;18.20;67.70;;;;;;5035076;28;20426;-77
2023/05/07 07:08:55;;;;;;;4.95;3.88;;;18.20;67.70;;;;;;5048834;28;20420;-77
2023/05/07 07:11:21;;;;;;;5.03;4.25;;;18.20;67.70;;;;;;5036299;28;20029;-77
2023/05/07 07:13:47;;;;;;;5.22;4.38;;;18.20;67.70;;;;;;5049485;28;20029;-78
2023/05/07 07:16:12;;;;;;;5.10;4.22;;;18.20;68.30;;;;;;5047029;28;20068;-77
2023/05/07 07:18:38;;;;;;;5.50;4.30;;;18.20;67.70;;;;;;5038991;28;20033;-77
2023/05/07 07:21:04;;;;;;;5.35;4.13;;;18.20;67.70;;;;;;5027636;28;20138;-78
2023/05/07 07:23:30;;;;;;;5.35;4.60;;;18.30;67.80;;;;;;5041611;28;20037;-77
2023/05/07 07:25:56;;;;;;;4.82;4.32;;;18.30;67.80;;;;;;5033070;28;20537;-77
2023/05/07 07:28:22;;;;;;;4.97;4.32;;;18.30;67.80;;;;;;5031194;28;20026;-77
2023/05/07 07:30:51;;;;;;;5.53;4.53;;;18.30;67.80;;;;;;5024750;28;20056;-78
2023/05/07 07:33:17;;;;;;;5.95;4.60;;;18.30;67.80;;;;;;5033796;28;20045;-78
2023/05/07 07:35:43;;;;;;;4.75;3.95;;;18.30;67.80;;;;;;5005097;28;20116;-77
2023/05/07 07:38:10;;;;;;;5.15;4.47;;;18.30;67.70;;;;;;5045313;28;20453;-77
2023/05/07 07:40:36;;;;;;;5.20;4.53;;;18.40;67.80;;;;;;5035467;28;20048;-76
2023/05/07 07:43:02;;;;;;;5.50;4.65;;;18.40;67.80;;;;;;5077803;28;20037;-77
2023/05/07 07:45:28;;;;;;;5.60;4.68;;;18.40;67.80;;;;;;5033873;28;20075;-77
2023/05/07 07:47:54;;;;;;;5.20;4.53;;;18.40;67.80;;;;;;5050818;28;20031;-77
2023/05/07 07:50:21;;;;;;;5.03;4.45;;;18.40;67.80;;;;;;5029903;28;20448;-77
2023/05/07 07:52:48;;;;;;;5.90;4.80;;;18.40;67.80;;;;;;5053336;28;20496;-78
2023/05/07 07:55:20;;;;;;;5.90;4.93;;;18.50;67.90;;;;;;5042923;28;20032;-77
2023/05/07 07:57:46;;;;;;;5.53;4.63;;;18.50;68.00;;;;;;5024429;28;20056;-75
2023/05/07 08:00:13;;;;;;;6.20;4.80;;;18.50;67.90;;;;;;5046951;28;20433;-78
2023/05/07 08:02:50;;;;;;;5.25;4.43;;;18.50;67.90;;;;;;5030223;28;20029;-78
2023/05/07 08:05:22;;;;;;;5.60;4.85;;;18.50;67.90;;;;;;5033696;28;20056;-76
2023/05/07 08:07:53;;;;;;;5.57;4.85;;;18.60;67.90;;;;;;5029269;28;20029;-77
2023/05/07 08:10:22;;;;;;;5.80;4.75;;;18.50;67.90;;;;;;5034224;28;20172;-78
2023/05/07 08:12:52;;;;;;;5.15;4.65;;;18.50;67.90;;;;;;5056646;28;20532;-77
2023/05/07 08:15:19;;;;;;;5.72;4.85;;;18.60;68.00;;;;;;5048173;28;20505;-77
2023/05/07 08:17:45;;;;;;;5.82;5.20;;;18.60;68.00;;;;;;5030771;28;20378;-78
2023/05/07 08:20:11;;;;;;;6.10;5.50;;;18.60;68.00;;;;;;5038681;28;20025;-77
2023/05/07 08:22:37;;;;;;;5.85;5.07;;;18.60;68.00;;;;;;5018713;28;20033;-77
2023/05/07 08:25:04;;;;;;;6.13;4.95;;;18.70;68.00;;;;;;5064716;28;20112;-78
2023/05/07 08:27:31;;;;;;;6.18;5.22;;;18.60;68.00;;;;;;5015684;28;20025;-77
2023/05/07 08:29:57;;;;;;;5.88;4.93;;;18.70;68.00;;;;;;5036288;28;20029;-78
2023/05/07 08:32:23;;;;;;;6.47;5.43;;;18.70;68.00;;;;;;5045943;28;20052;-78
2023/05/07 08:34:49;;;;;;;5.50;4.72;;;18.70;68.00;;;;;;5015205;28;20049;-77
2023/05/07 08:37:15;;;;;;;6.22;5.28;;;18.70;68.00;;;;;;5048542;28;20112;-78
2023/05/07 08:39:41;;;;;;;5.80;5.10;;;18.80;68.70;;;;;;5052823;28;20029;-78
2023/05/07 08:42:16;;;;;;;5.65;4.95;;;18.80;68.10;;;;;;5003013;28;20021;-77
2023/05/07 08:44:48;;;;;;;6.45;5.40;;;18.80;68.00;;;;;;5047180;28;20449;-77
2023/05/07 08:47:16;;;;;;;5.95;5.03;;;18.80;68.00;;;;;;5044999;28;20489;-77
2023/05/07 08:49:43;;;;;;;6.20;5.25;;;18.90;68.10;;;;;;5047370;28;20128;-77
2023/05/07 08:52:09;;;;;;;6.53;5.60;;;18.90;68.00;;;;;;5028536;28;20277;-76
2023/05/07 08:54:37;;;;;;;5.93;5.00;;;18.90;68.00;;;;;;5041778;28;20414;-77
2023/05/07 08:57:03;;;;;;;6.20;5.35;;;19.00;68.00;;;;;;5046604;28;20029;-79
2023/05/07 08:59:30;;;;;;;7.63;5.90;;;19.00;68.00;;;;;;5042903;28;20065;-80
2023/05/07 09:01:56;;;;;;;8.05;6.85;;;19.00;68.10;;;;;;5012987;28;20024;-80
2023/05/07 09:04:22;;;;;;;8.98;7.47;;;19.00;68.50;;;;;;5038840;28;20037;-81
2023/05/07 09:06:48;;;;;;;10.68;7.72;;;19.10;68.70;;;;;;5037447;28;20032;-80
2023/05/07 09:09:18;;;;;;;9.52;7.90;;;19.10;68.90;;;;;;5026464;28;20026;-80
2023/05/07 09:11:44;;;;;;;9.40;7.95;;;19.10;69.30;;;;;;5071914;28;20497;-81
2023/05/07 09:14:11;;;;;;;8.70;7.78;;;19.10;69.50;;;;;;5017243;28;20044;-80
2023/05/07 09:16:40;;;;;;;9.73;8.73;;;19.20;69.70;;;;;;5019132;28;20486;-80
2023/05/07 09:19:07;;;;;;;9.40;8.00;;;19.20;69.90;;;;;;5033652;28;20060;-80
2023/05/07 09:21:33;;;;;;;9.90;8.80;;;19.30;70.10;;;;;;5024710;28;20039;-80
2023/05/07 09:24:02;;;;;;;9.38;8.30;;;19.30;70.20;;;;;;5036906;28;20040;-80
2023/05/07 09:26:35;;;;;;;9.30;8.38;;;19.30;70.20;;;;;;5034220;28;20021;-79
2023/05/07 09:29:02;;;;;;;10.52;7.97;;;19.40;70.30;;;;;;5027841;28;20036;-80
2023/05/07 09:31:28;;;;;;;9.23;8.32;;;19.40;70.20;;;;;;5018039;28;20083;-79
2023/05/07 09:33:56;;;;;;;9.77;8.68;;;19.50;70.30;;;;;;5048372;28;20041;-80
2023/05/07 09:36:24;;;;;;;9.57;8.57;;;19.50;70.30;;;;;;5016137;28;20045;-79
2023/05/07 09:38:51;;;;;;;9.25;8.23;;;19.60;70.30;;;;;;5026355;28;20033;-79
2023/05/07 09:41:16;;;;;;;10.57;9.15;;;19.60;70.30;;;;;;5055223;28;20103;-83
2023/05/07 09:44:03;;;;;;;9.25;8.25;;;19.60;70.30;;;;;;5045627;28;20120;-79
2023/05/07 09:46:38;;;;;;;9.10;8.20;;;19.70;70.30;;;;;;5033402;28;20033;-79
2023/05/07 09:49:15;;;;;;;10.13;8.80;;;19.70;70.60;;;;;;5029923;28;20454;-80
2023/05/07 09:51:51;;;;;;;9.88;8.73;;;19.80;70.70;;;;;;5061798;28;20022;-78
2023/05/07 09:54:19;;;;;;;9.38;7.90;;;19.80;70.60;;;;;;5045197;28;20087;-78
2023/05/07 09:56:52;;;;;;;9.85;7.60;;;19.90;70.40;;;;;;5030094;28;20009;-78
2023/05/07 09:59:21;;;;;;;9.68;8.43;;;20.00;70.50;;;;;;5037098;28;20033;-78
2023/05/07 10:01:48;;;;;;;8.85;7.18;;;20.00;70.30;;;;;;5047637;28;20473;-78
2023/05/07 10:04:16;;;;;;;9.15;8.13;;;20.00;70.20;;;;;;5022925;28;20359;-77
2023/05/07 10:06:45;;;;;;;8.98;8.05;;;20.10;70.10;;;;;;5055336;28;20024;-78
2023/05/07 10:09:12;;;;;;;8.88;7.97;;;20.10;70.00;;;;;;5054126;28;20018;-78
2023/05/07 10:11:40;;;;;;;8.35;7.35;;;20.20;70.00;;;;;;5027811;28;20580;-78
2023/05/07 10:14:06;;;;;;;8.27;7.47;;;20.20;69.80;;;;;;5026429;28;20175;-78
2023/05/07 10:16:36;;;;;;;8.52;7.63;;;20.30;69.70;;;;;;5008308;28;20285;-78
2023/05/07 10:19:05;;;;;;;8.52;7.57;;;20.40;69.70;;;;;;5043962;28;20045;-79
2023/05/07 10:21:44;;;;;;;7.93;7.13;;;20.50;69.50;;;;;;5023235;28;20028;-78
2023/05/07 10:24:23;;;;;;;7.50;6.72;;;20.50;69.50;;;;;;5024730;28;20609;-78
2023/05/07 10:26:52;;;;;;;7.72;6.85;;;20.60;69.40;;;;;;5027436;28;20040;-79
2023/05/07 10:29:25;;;;;;;8.02;6.80;;;20.70;69.20;;;;;;5054233;28;20319;-79
2023/05/07 10:32:02;;;;;;;8.35;7.30;;;20.70;69.20;;;;;;5042071;28;20056;-79
2023/05/07 10:34:36;;;;;;;7.68;6.88;;;20.80;69.10;;;;;;5042088;28;20063;-78
2023/05/07 10:37:02;;;;;;;8.23;7.32;;;20.80;68.90;;;;;;5045083;28;20373;-78
2023/05/07 10:39:30;;;;;;;7.18;6.47;;;21.00;68.90;;;;;;5045245;28;20040;-78
2023/05/07 10:41:56;;;;;;;7.55;6.75;;;21.00;68.80;;;;;;5044617;28;20366;-79
2023/05/07 10:44:27;;;;;;;6.97;6.25;;;21.10;68.70;;;;;;5014024;28;20032;-78
2023/05/07 10:47:09;;;;;;;7.28;6.53;;;21.20;68.60;;;;;;5036603;28;20048;-79
2023/05/07 10:49:57;;;;;;;7.60;6.80;;;21.30;68.60;;;;;;5044398;28;20044;-78
2023/05/07 10:52:29;;;;;;;7.80;6.97;;;21.40;68.40;;;;;;5045443;28;20484;-78
2023/05/07 10:55:17;;;;;;;7.13;6.43;;;21.50;68.20;;;;;;5032251;28;20052;-78
2023/05/07 10:57:47;;;;;;;6.85;6.13;;;21.50;68.20;;;;;;5031333;28;20060;-78
2023/05/07 11:00:26;;;;;;;6.57;5.78;;;21.60;68.10;;;;;;5029627;28;20036;-78
2023/05/07 11:03:00;;;;;;;7.18;5.85;;;21.70;68.00;;;;;;5040233;28;20022;-78
2023/05/07 11:05:30;;;;;;;7.20;6.43;;;21.80;67.90;;;;;;5050194;28;20445;-79
2023/05/07 11:08:55;;;;;;;7.20;6.05;;;21.90;67.90;;;;;;5045807;28;20028;-79
2023/05/07 11:11:58;;;;;;;6.22;5.47;;;22.00;67.80;;;;;;5031692;28;20497;-78
2023/05/07 11:14:47;;;;;;;6.97;5.53;;;22.10;67.70;;;;;;5021233;28;20438;-78
2023/05/07 11:17:35;;;;;;;6.50;5.85;;;22.20;67.50;;;;;;5046500;28;20025;-78
2023/05/07 11:20:05;;;;;;;6.82;5.82;;;22.30;67.40;;;;;;5032831;28;20398;-78
2023/05/07 11:22:40;;;;;;;6.82;6.10;;;22.40;67.50;;;;;;5030212;28;20056;-78
2023/05/07 11:25:29;;;;;;;6.65;5.45;;;22.50;67.50;;;;;;5040880;28;20025;-80
2023/05/07 11:28:10;;;;;;;6.05;5.45;;;22.50;67.40;;;;;;5031693;28;20044;-79
2023/05/07 11:30:39;;;;;;;7.20;6.30;;;22.60;67.40;;;;;;5027567;28;20508;-80
2023/05/07 11:33:08;;;;;;;7.20;6.47;;;22.70;67.20;;;;;;5044826;28;20044;-81
2023/05/07 11:35:35;;;;;;;8.00;6.65;;;22.70;67.10;;;;;;5044981;28;20045;-79
2023/05/07 11:38:01;;;;;;;8.18;7.30;;;22.80;67.10;;;;;;5042842;28;20037;-79
2023/05/07 11:40:30;;;;;;;8.30;7.18;;;22.90;66.90;;;;;;5008159;28;20043;-80
2023/05/07 11:42:56;;;;;;;8.38;7.47;;;22.90;66.80;;;;;;5044988;28;20115;-79
2023/05/07 11:45:25;;;;;;;9.95;8.05;;;23.00;66.70;;;;;;5028262;28;20033;-79
2023/05/07 11:47:51;;;;;;;8.35;7.53;;;23.00;66.50;;;;;;5044270;28;20502;-81
2023/05/07 11:50:16;;;;;;;8.05;7.25;;;23.00;66.20;;;;;;5043615;28;20042;-80
2023/05/07 11:52:50;;;;;;;7.88;7.07;;;23.10;66.20;;;;;;5045090;28;20029;-77
2023/05/07 11:55:18;;;;;;;8.63;7.75;;;23.10;66.10;;;;;;5044095;28;20090;-83
2023/05/07 11:57:45;;;;;;;8.32;7.28;;;23.20;66.10;;;;;;5046207;28;20068;-79
2023/05/07 12:00:11;;;;;;;8.50;6.75;;;23.20;66.10;;;;;;5043273;28;20535;-83
2023/05/07 12:02:39;;;;;;;8.18;7.07;;;23.30;66.00;;;;;;5044373;28;20041;-78
2023/05/07 12:05:05;;;;;;;10.13;7.18;;;23.30;65.90;;;;;;5025958;28;20029;-76
2023/05/07 12:07:33;;;;;;;7.88;7.07;;;23.30;65.80;;;;;;5045993;28;20029;-77
2023/05/07 12:09:59;;;;;;;8.27;7.43;;;23.40;65.70;;;;;;5042857;28;20124;-76
2023/05/07 12:12:26;;;;;;;7.57;6.80;;;23.40;65.60;;;;;;5027631;28;20112;-76
2023/05/07 12:14:52;;;;;;;7.43;6.60;;;23.40;65.40;;;;;;5043767;28;20474;-77
2023/05/07 12:17:18;;;;;;;6.75;6.05;;;23.50;65.30;;;;;;5046057;28;21111;-75
2023/05/07 12:19:45;;;;;;;7.68;6.45;;;23.50;65.20;;;;;;5039784;28;20036;-79
2023/05/07 12:22:11;;;;;;;7.25;6.28;;;23.50;65.10;;;;;;5044983;28;20037;-81
2023/05/07 12:24:56;;;;;;;7.57;6.43;;;23.50;65.10;;;;;;5046101;28;20553;-80
2023/05/07 12:27:21;;;;;;;6.88;6.03;;;23.60;65.20;;;;;;5029381;28;20458;-82
2023/05/07 12:29:48;;;;;;;7.22;6.10;;;23.60;65.10;;;;;;5026383;28;20435;-82
2023/05/07 12:32:15;;;;;;;8.65;5.95;;;23.70;65.20;;;;;;5048070;28;20324;-81
2023/05/07 12:34:41;;;;;;;7.10;5.82;;;23.70;65.20;;;;;;5038665;28;20489;-82
2023/05/07 12:37:07;;;;;;;6.13;5.35;;;23.70;65.20;;;;;;5060904;28;20079;-83
2023/05/07 12:39:33;;;;;;;6.78;5.90;;;23.80;65.20;;;;;;5027712;28;21314;-79
2023/05/07 12:41:59;;;;;;;6.47;5.80;;;23.80;65.20;;;;;;5029124;28;20047;-80
2023/05/07 12:44:29;;;;;;;6.68;5.60;;;23.80;65.30;;;;;;5044372;28;20365;-80
2023/05/07 12:46:55;;;;;;;6.88;5.72;;;23.80;65.30;;;;;;5017030;28;20039;-79
2023/05/07 12:49:22;;;;;;;6.53;5.38;;;23.80;65.20;;;;;;5044329;28;20385;-80
2023/05/07 12:51:49;;;;;;;6.32;5.20;;;23.80;65.30;;;;;;5036333;28;20040;-80